DUS weather

Düsseldorf Airport
Düsseldorf, North Rhine-Westphalia, Germany

Public forecast

Using degrees Celsius for public forecast. Weather courtesy of forecast.io.

METAR (pilot weather report)

Retrieved 2019/02/16 21:20 UTC (38 minutes ago):

EDDL 162120Z 11003KT 030V130 CAVOK 05/02 Q1025 NOSIG

TAF (pilot weather forecast)

Retrieved 2019/02/16 18:27 UTC (4 hours ago):

TAF EDDL 161700Z 1618/1724 17007KT CAVOK BECMG 1705/1708 15013KT